sensor_id;sensor_type;location;lat;lon;timestamp;pressure;altitude;pressure_sealevel;temperature;humidity
45621;BME280;31345;51.522;10.702;2023-04-07T00:00:17;99200.22;;;0.06;100.00
45621;BME280;31345;51.522;10.702;2023-04-07T00:02:44;99198.91;;;-0.13;100.00
45621;BME280;31345;51.522;10.702;2023-04-07T00:05:17;99200.53;;;-0.09;100.00
45621;BME280;31345;51.522;10.702;2023-04-07T00:07:46;99202.34;;;-0.14;100.00
45621;BME280;31345;51.522;10.702;2023-04-07T00:10:18;99197.97;;;-0.09;100.00
45621;BME280;31345;51.522;10.702;2023-04-07T00:12:50;99211.16;;;-0.26;100.00
45621;BME280;31345;51.522;10.702;2023-04-07T00:15:22;99203.31;;;-0.20;100.00
45621;BME280;31345;51.522;10.702;2023-04-07T00:17:55;99206.94;;;-0.30;100.00
45621;BME280;31345;51.522;10.702;2023-04-07T00:20:27;99205.09;;;-0.24;100.00
45621;BME280;31345;51.522;10.702;2023-04-07T00:23:01;99207.63;;;-0.22;100.00
45621;BME280;31345;51.522;10.702;2023-04-07T00:25:34;99205.16;;;-0.27;100.00
45621;BME280;31345;51.522;10.702;2023-04-07T00:28:06;99209.59;;;-0.35;100.00
45621;BME280;31345;51.522;10.702;2023-04-07T00:30:33;99202.03;;;-0.43;100.00
45621;BME280;31345;51.522;10.702;2023-04-07T00:33:06;99216.31;;;-0.28;100.00
45621;BME280;31345;51.522;10.702;2023-04-07T00:35:38;99203.66;;;-0.37;100.00
45621;BME280;31345;51.522;10.702;2023-04-07T00:38:07;99209.06;;;-0.51;100.00
45621;BME280;31345;51.522;10.702;2023-04-07T00:40:34;99201.81;;;-0.78;100.00
45621;BME280;31345;51.522;10.702;2023-04-07T00:43:07;99202.38;;;-0.62;100.00
45621;BME280;31345;51.522;10.702;2023-04-07T00:45:39;99207.03;;;-0.83;100.00
45621;BME280;31345;51.522;10.702;2023-04-07T00:48:12;99200.66;;;-0.61;100.00
45621;BME280;31345;51.522;10.702;2023-04-07T00:50:44;99193.00;;;-0.64;100.00
45621;BME280;31345;51.522;10.702;2023-04-07T00:53:18;99193.00;;;-0.63;100.00
45621;BME280;31345;51.522;10.702;2023-04-07T00:55:51;99187.84;;;-0.63;100.00
45621;BME280;31345;51.522;10.702;2023-04-07T00:58:18;99192.47;;;-0.82;100.00
45621;BME280;31345;51.522;10.702;2023-04-07T01:00:48;99191.34;;;-1.17;100.00
45621;BME280;31345;51.522;10.702;2023-04-07T01:03:17;99194.09;;;-1.28;100.00
45621;BME280;31345;51.522;10.702;2023-04-07T01:05:45;99191.88;;;-0.98;100.00
45621;BME280;31345;51.522;10.702;2023-04-07T01:08:25;99186.09;;;-1.11;100.00
45621;BME280;31345;51.522;10.702;2023-04-07T01:10:59;99178.97;;;-0.92;100.00
45621;BME280;31345;51.522;10.702;2023-04-07T01:13:35;99178.47;;;-1.14;100.00
45621;BME280;31345;51.522;10.702;2023-04-07T01:16:16;99179.44;;;-1.22;100.00
45621;BME280;31345;51.522;10.702;2023-04-07T01:18:54;99170.88;;;-1.22;100.00
45621;BME280;31345;51.522;10.702;2023-04-07T01:21:25;99169.41;;;-1.36;100.00
45621;BME280;31345;51.522;10.702;2023-04-07T01:26:48;99178.19;;;-0.99;100.00
45621;BME280;31345;51.522;10.702;2023-04-07T01:29:30;99176.91;;;-1.23;100.00
45621;BME280;31345;51.522;10.702;2023-04-07T01:32:05;99176.53;;;-1.01;100.00
45621;BME280;31345;51.522;10.702;2023-04-07T01:34:41;99162.53;;;-1.33;100.00
45621;BME280;31345;51.522;10.702;2023-04-07T01:37:08;99172.56;;;-1.21;100.00
45621;BME280;31345;51.522;10.702;2023-04-07T01:39:41;99172.50;;;-1.15;100.00
45621;BME280;31345;51.522;10.702;2023-04-07T01:42:13;99171.78;;;-1.25;100.00
45621;BME280;31345;51.522;10.702;2023-04-07T01:44:48;99170.59;;;-1.03;100.00
45621;BME280;31345;51.522;10.702;2023-04-07T01:47:21;99171.09;;;-0.83;100.00
45621;BME280;31345;51.522;10.702;2023-04-07T01:49:49;99169.25;;;-1.26;100.00
45621;BME280;31345;51.522;10.702;2023-04-07T01:52:17;99169.63;;;-1.51;100.00
45621;BME280;31345;51.522;10.702;2023-04-07T01:54:49;99174.25;;;-1.18;100.00
45621;BME280;31345;51.522;10.702;2023-04-07T01:57:22;99174.91;;;-1.07;100.00
45621;BME280;31345;51.522;10.702;2023-04-07T02:00:00;99169.94;;;-1.15;100.00
45621;BME280;31345;51.522;10.702;2023-04-07T02:02:46;99171.66;;;-1.17;100.00
45621;BME280;31345;51.522;10.702;2023-04-07T02:05:21;99173.53;;;-1.27;100.00
45621;BME280;31345;51.522;10.702;2023-04-07T02:07:54;99163.59;;;-1.47;100.00
45621;BME280;31345;51.522;10.702;2023-04-07T02:10:29;99163.56;;;-1.45;100.00
45621;BME280;31345;51.522;10.702;2023-04-07T02:13:05;99170.44;;;-1.49;100.00
45621;BME280;31345;51.522;10.702;2023-04-07T02:15:36;99164.38;;;-1.43;100.00
45621;BME280;31345;51.522;10.702;2023-04-07T02:18:09;99161.19;;;-1.58;100.00
45621;BME280;31345;51.522;10.702;2023-04-07T02:20:43;99157.84;;;-1.63;100.00
45621;BME280;31345;51.522;10.702;2023-04-07T02:29:36;99163.06;;;-1.69;100.00
45621;BME280;31345;51.522;10.702;2023-04-07T02:32:10;99156.13;;;-1.61;100.00
45621;BME280;31345;51.522;10.702;2023-04-07T02:34:42;99155.25;;;-1.62;100.00
45621;BME280;31345;51.522;10.702;2023-04-07T02:37:09;99149.44;;;-1.73;100.00
45621;BME280;31345;51.522;10.702;2023-04-07T02:39:42;99155.22;;;-1.60;100.00
45621;BME280;31345;51.522;10.702;2023-04-07T02:42:09;99155.41;;;-1.71;100.00
45621;BME280;31345;51.522;10.702;2023-04-07T02:44:41;99157.09;;;-1.71;100.00
45621;BME280;31345;51.522;10.702;2023-04-07T02:50:10;99159.94;;;-1.32;100.00
45621;BME280;31345;51.522;10.702;2023-04-07T02:52:42;99159.44;;;-1.54;100.00
45621;BME280;31345;51.522;10.702;2023-04-07T02:58:18;99159.59;;;-1.65;100.00
45621;BME280;31345;51.522;10.702;2023-04-07T03:00:46;99169.16;;;-1.77;100.00
45621;BME280;31345;51.522;10.702;2023-04-07T03:06:19;99165.31;;;-1.48;100.00
45621;BME280;31345;51.522;10.702;2023-04-07T03:09:11;99163.75;;;-1.58;100.00
45621;BME280;31345;51.522;10.702;2023-04-07T03:11:44;99158.69;;;-1.61;100.00
45621;BME280;31345;51.522;10.702;2023-04-07T03:14:16;99160.47;;;-1.66;100.00
45621;BME280;31345;51.522;10.702;2023-04-07T03:16:52;99163.28;;;-1.83;100.00
45621;BME280;31345;51.522;10.702;2023-04-07T03:19:26;99159.63;;;-1.68;100.00
45621;BME280;31345;51.522;10.702;2023-04-07T03:22:00;99153.72;;;-1.72;100.00
45621;BME280;31345;51.522;10.702;2023-04-07T03:24:38;99152.91;;;-1.77;100.00
45621;BME280;31345;51.522;10.702;2023-04-07T03:27:06;99151.97;;;-1.71;100.00
45621;BME280;31345;51.522;10.702;2023-04-07T03:29:43;99146.03;;;-1.72;100.00
45621;BME280;31345;51.522;10.702;2023-04-07T03:32:18;99145.94;;;-1.69;100.00
45621;BME280;31345;51.522;10.702;2023-04-07T03:34:51;99145.31;;;-1.82;100.00
45621;BME280;31345;51.522;10.702;2023-04-07T03:37:20;99145.38;;;-1.88;100.00
45621;BME280;31345;51.522;10.702;2023-04-07T03:39:53;99153.25;;;-2.01;100.00
45621;BME280;31345;51.522;10.702;2023-04-07T03:42:30;99152.09;;;-1.78;100.00
45621;BME280;31345;51.522;10.702;2023-04-07T03:45:07;99144.03;;;-1.54;100.00
45621;BME280;31345;51.522;10.702;2023-04-07T03:47:44;99145.59;;;-1.44;100.00
45621;BME280;31345;51.522;10.702;2023-04-07T03:50:11;99154.56;;;-1.18;100.00
45621;BME280;31345;51.522;10.702;2023-04-07T03:52:56;99144.75;;;-1.44;100.00
45621;BME280;31345;51.522;10.702;2023-04-07T03:55:31;99144.72;;;-2.03;100.00
45621;BME280;31345;51.522;10.702;2023-04-07T03:58:11;99150.03;;;-1.54;100.00
45621;BME280;31345;51.522;10.702;2023-04-07T04:00:40;99143.78;;;-1.97;100.00
45621;BME280;31345;51.522;10.702;2023-04-07T04:03:09;99149.03;;;-2.05;100.00
45621;BME280;31345;51.522;10.702;2023-04-07T04:05:50;99151.50;;;-1.98;100.00
45621;BME280;31345;51.522;10.702;2023-04-07T04:08:29;99151.25;;;-1.81;100.00
45621;BME280;31345;51.522;10.702;2023-04-07T04:11:01;99154.00;;;-1.94;100.00
45621;BME280;31345;51.522;10.702;2023-04-07T04:13:35;99156.59;;;-1.97;100.00
45621;BME280;31345;51.522;10.702;2023-04-07T04:16:09;99155.94;;;-2.10;100.00
45621;BME280;31345;51.522;10.702;2023-04-07T04:18:43;99155.81;;;-2.02;100.00
45621;BME280;31345;51.522;10.702;2023-04-07T04:21:18;99157.47;;;-1.96;100.00
45621;BME280;31345;51.522;10.702;2023-04-07T04:23:53;99154.34;;;-1.57;100.00
45621;BME280;31345;51.522;10.702;2023-04-07T04:26:25;99152.19;;;-1.87;100.00
45621;BME280;31345;51.522;10.702;2023-04-07T04:29:03;99157.81;;;-1.62;100.00
45621;BME280;31345;51.522;10.702;2023-04-07T04:31:37;99152.63;;;-1.55;100.00
45621;BME280;31345;51.522;10.702;2023-04-07T04:34:10;99153.81;;;-1.80;100.00
45621;BME280;31345;51.522;10.702;2023-04-07T04:36:38;99157.25;;;-1.81;100.00
45621;BME280;31345;51.522;10.702;2023-04-07T04:39:07;99158.53;;;-1.52;100.00
45621;BME280;31345;51.522;10.702;2023-04-07T04:41:40;99157.59;;;-1.48;100.00
45621;BME280;31345;51.522;10.702;2023-04-07T04:44:15;99166.81;;;-1.34;100.00
45621;BME280;31345;51.522;10.702;2023-04-07T04:46:48;99166.38;;;-1.61;100.00
45621;BME280;31345;51.522;10.702;2023-04-07T04:49:16;99161.34;;;-1.69;100.00
45621;BME280;31345;51.522;10.702;2023-04-07T04:51:46;99161.44;;;-1.75;100.00
45621;BME280;31345;51.522;10.702;2023-04-07T04:56:46;99164.88;;;-1.76;100.00
45621;BME280;31345;51.522;10.702;2023-04-07T04:59:19;99173.91;;;-1.52;100.00
45621;BME280;31345;51.522;10.702;2023-04-07T05:02:01;99172.88;;;-1.38;100.00
45621;BME280;31345;51.522;10.702;2023-04-07T05:04:28;99170.56;;;-1.55;100.00
45621;BME280;31345;51.522;10.702;2023-04-07T05:07:02;99179.78;;;-1.45;100.00
45621;BME280;31345;51.522;10.702;2023-04-07T05:09:31;99175.81;;;-1.65;100.00
45621;BME280;31345;51.522;10.702;2023-04-07T05:12:00;99176.81;;;-1.75;100.00
45621;BME280;31345;51.522;10.702;2023-04-07T05:14:32;99174.75;;;-1.50;100.00
45621;BME280;31345;51.522;10.702;2023-04-07T05:17:09;99173.00;;;-1.48;100.00
45621;BME280;31345;51.522;10.702;2023-04-07T05:19:37;99173.09;;;-1.52;100.00
45621;BME280;31345;51.522;10.702;2023-04-07T05:22:28;99180.59;;;-1.41;100.00
45621;BME280;31345;51.522;10.702;2023-04-07T05:24:56;99171.13;;;-1.38;100.00
45621;BME280;31345;51.522;10.702;2023-04-07T05:27:25;99171.94;;;-1.34;100.00
45621;BME280;31345;51.522;10.702;2023-04-07T05:30:01;99175.03;;;-1.13;100.00
45621;BME280;31345;51.522;10.702;2023-04-07T05:32:38;99175.81;;;-1.10;100.00
45621;BME280;31345;51.522;10.702;2023-04-07T05:35:19;99170.56;;;-1.02;100.00
45621;BME280;31345;51.522;10.702;2023-04-07T05:37:52;99174.53;;;-0.84;100.00
45621;BME280;31345;51.522;10.702;2023-04-07T05:40:25;99166.59;;;-0.69;100.00
45621;BME280;31345;51.522;10.702;2023-04-07T05:43:01;99172.53;;;-0.67;100.00
45621;BME280;31345;51.522;10.702;2023-04-07T05:45:36;99174.00;;;-0.54;100.00
45621;BME280;31345;51.522;10.702;2023-04-07T05:48:04;99171.84;;;-0.32;100.00
45621;BME280;31345;51.522;10.702;2023-04-07T05:50:46;99165.81;;;-0.29;100.00
45621;BME280;31345;51.522;10.702;2023-04-07T05:53:17;99179.44;;;-0.25;100.00
45621;BME280;31345;51.522;10.702;2023-04-07T05:55:50;99172.28;;;-0.11;100.00
45621;BME280;31345;51.522;10.702;2023-04-07T05:58:34;99169.50;;;0.00;100.00
45621;BME280;31345;51.522;10.702;2023-04-07T06:01:07;99170.28;;;0.04;100.00
45621;BME280;31345;51.522;10.702;2023-04-07T06:03:36;99172.41;;;0.24;100.00
45621;BME280;31345;51.522;10.702;2023-04-07T06:06:19;99178.28;;;0.29;100.00
45621;BME280;31345;51.522;10.702;2023-04-07T06:08:52;99177.34;;;0.33;100.00
45621;BME280;31345;51.522;10.702;2023-04-07T06:11:27;99179.56;;;0.49;100.00
45621;BME280;31345;51.522;10.702;2023-04-07T06:14:00;99175.28;;;0.50;100.00
45621;BME280;31345;51.522;10.702;2023-04-07T06:16:28;99172.38;;;0.64;100.00
45621;BME280;31345;51.522;10.702;2023-04-07T06:19:00;99178.69;;;0.87;100.00
45621;BME280;31345;51.522;10.702;2023-04-07T06:21:34;99183.53;;;0.99;100.00
45621;BME280;31345;51.522;10.702;2023-04-07T06:24:09;99174.53;;;1.16;100.00
45621;BME280;31345;51.522;10.702;2023-04-07T06:26:38;99174.72;;;1.08;100.00
45621;BME280;31345;51.522;10.702;2023-04-07T06:29:13;99187.59;;;1.08;100.00
45621;BME280;31345;51.522;10.702;2023-04-07T06:31:45;99182.09;;;1.22;100.00
45621;BME280;31345;51.522;10.702;2023-04-07T06:34:18;99183.53;;;1.34;100.00
45621;BME280;31345;51.522;10.702;2023-04-07T06:36:50;99176.72;;;1.31;100.00
45621;BME280;31345;51.522;10.702;2023-04-07T06:39:24;99191.09;;;1.05;100.00
45621;BME280;31345;51.522;10.702;2023-04-07T06:41:56;99191.31;;;0.97;100.00
45621;BME280;31345;51.522;10.702;2023-04-07T06:44:30;99194.28;;;1.15;100.00
45621;BME280;31345;51.522;10.702;2023-04-07T06:47:03;99194.91;;;1.25;100.00
45621;BME280;31345;51.522;10.702;2023-04-07T06:49:35;99200.63;;;1.36;99.71
45621;BME280;31345;51.522;10.702;2023-04-07T06:52:08;99197.19;;;1.36;100.00
45621;BME280;31345;51.522;10.702;2023-04-07T06:54:41;99193.91;;;1.64;99.88
45621;BME280;31345;51.522;10.702;2023-04-07T06:57:13;99192.06;;;1.68;99.66
45621;BME280;31345;51.522;10.702;2023-04-07T06:59:47;99192.78;;;1.73;98.70
45621;BME280;31345;51.522;10.702;2023-04-07T07:02:14;99191.44;;;1.90;97.87
45621;BME280;31345;51.522;10.702;2023-04-07T07:04:47;99187.09;;;1.92;100.00
45621;BME280;31345;51.522;10.702;2023-04-07T07:07:19;99181.00;;;1.94;99.85
45621;BME280;31345;51.522;10.702;2023-04-07T07:09:52;99181.56;;;2.34;98.94
45621;BME280;31345;51.522;10.702;2023-04-07T07:12:25;99181.53;;;2.63;98.85
45621;BME280;31345;51.522;10.702;2023-04-07T07:14:59;99181.91;;;2.79;99.61
45621;BME280;31345;51.522;10.702;2023-04-07T07:17:31;99180.00;;;2.57;98.22
45621;BME280;31345;51.522;10.702;2023-04-07T07:19:58;99182.28;;;2.94;98.11
45621;BME280;31345;51.522;10.702;2023-04-07T07:22:31;99180.63;;;3.18;96.89
45621;BME280;31345;51.522;10.702;2023-04-07T07:25:03;99185.53;;;3.51;96.32
45621;BME280;31345;51.522;10.702;2023-04-07T07:27:36;99180.94;;;3.84;94.73
45621;BME280;31345;51.522;10.702;2023-04-07T07:30:10;99186.22;;;4.04;95.91
45621;BME280;31345;51.522;10.702;2023-04-07T07:32:43;99179.22;;;4.30;87.53
45621;BME280;31345;51.522;10.702;2023-04-07T07:35:10;99178.03;;;4.39;86.41
45621;BME280;31345;51.522;10.702;2023-04-07T07:37:42;99174.00;;;4.75;84.12
45621;BME280;31345;51.522;10.702;2023-04-07T07:40:15;99184.69;;;4.67;86.15
45621;BME280;31345;51.522;10.702;2023-04-07T07:42:42;99178.19;;;4.57;85.65
45621;BME280;31345;51.522;10.702;2023-04-07T07:45:16;99179.59;;;4.87;84.68
45621;BME280;31345;51.522;10.702;2023-04-07T07:47:49;99187.66;;;5.22;85.38
45621;BME280;31345;51.522;10.702;2023-04-07T07:50:22;99181.63;;;5.21;82.87
45621;BME280;31345;51.522;10.702;2023-04-07T07:52:49;99187.06;;;5.57;80.81
45621;BME280;31345;51.522;10.702;2023-04-07T07:55:21;99176.63;;;5.58;79.40
45621;BME280;31345;51.522;10.702;2023-04-07T07:57:54;99184.19;;;5.42;79.05
45621;BME280;31345;51.522;10.702;2023-04-07T08:00:23;99187.59;;;5.44;78.55
45621;BME280;31345;51.522;10.702;2023-04-07T08:02:50;99195.16;;;5.89;79.46
45621;BME280;31345;51.522;10.702;2023-04-07T08:05:22;99198.22;;;5.59;80.30
45621;BME280;31345;51.522;10.702;2023-04-07T08:07:55;99194.91;;;5.95;81.03
45621;BME280;31345;51.522;10.702;2023-04-07T08:10:27;99195.44;;;6.21;77.49
45621;BME280;31345;51.522;10.702;2023-04-07T08:13:00;99201.13;;;5.91;76.46
45621;BME280;31345;51.522;10.702;2023-04-07T08:15:28;99189.09;;;6.09;74.99
45621;BME280;31345;51.522;10.702;2023-04-07T08:18:01;99195.78;;;6.33;76.61
45621;BME280;31345;51.522;10.702;2023-04-07T08:20:34;99202.72;;;6.32;75.74
45621;BME280;31345;51.522;10.702;2023-04-07T08:23:06;99202.47;;;6.38;76.17
45621;BME280;31345;51.522;10.702;2023-04-07T08:25:34;99203.88;;;6.83;75.72
45621;BME280;31345;51.522;10.702;2023-04-07T08:28:06;99199.56;;;6.82;73.76
45621;BME280;31345;51.522;10.702;2023-04-07T08:30:40;99204.88;;;7.15;75.90
45621;BME280;31345;51.522;10.702;2023-04-07T08:33:07;99204.75;;;7.70;73.03
45621;BME280;31345;51.522;10.702;2023-04-07T08:35:40;99210.22;;;7.65;72.35
45621;BME280;31345;51.522;10.702;2023-04-07T08:38:12;99203.41;;;7.63;73.62
45621;BME280;31345;51.522;10.702;2023-04-07T08:40:45;99210.75;;;7.37;71.13
45621;BME280;31345;51.522;10.702;2023-04-07T08:43:18;99213.44;;;7.87;72.56
45621;BME280;31345;51.522;10.702;2023-04-07T08:45:47;99203.72;;;7.90;71.87
45621;BME280;31345;51.522;10.702;2023-04-07T08:48:22;99197.81;;;7.87;73.09
45621;BME280;31345;51.522;10.702;2023-04-07T08:50:56;99193.31;;;8.06;69.89
45621;BME280;31345;51.522;10.702;2023-04-07T08:53:32;99198.94;;;8.15;70.65
45621;BME280;31345;51.522;10.702;2023-04-07T08:56:06;99200.22;;;8.24;69.43
45621;BME280;31345;51.522;10.702;2023-04-07T08:58:34;99190.19;;;8.64;64.64
45621;BME280;31345;51.522;10.702;2023-04-07T09:01:09;99193.16;;;8.58;66.14
45621;BME280;31345;51.522;10.702;2023-04-07T09:03:42;99192.91;;;8.93;63.98
45621;BME280;31345;51.522;10.702;2023-04-07T09:06:10;99192.06;;;8.93;65.60
45621;BME280;31345;51.522;10.702;2023-04-07T09:08:43;99195.13;;;9.16;64.97
45621;BME280;31345;51.522;10.702;2023-04-07T09:11:10;99193.41;;;9.15;64.28
45621;BME280;31345;51.522;10.702;2023-04-07T09:13:38;99184.53;;;9.62;62.49
45621;BME280;31345;51.522;10.702;2023-04-07T09:16:05;99193.97;;;9.80;63.55
45621;BME280;31345;51.522;10.702;2023-04-07T09:18:39;99180.06;;;9.65;61.43
45621;BME280;31345;51.522;10.702;2023-04-07T09:21:12;99180.66;;;9.55;60.67
45621;BME280;31345;51.522;10.702;2023-04-07T09:23:45;99183.78;;;9.89;62.27
45621;BME280;31345;51.522;10.702;2023-04-07T09:26:19;99190.22;;;9.98;59.72
45621;BME280;31345;51.522;10.702;2023-04-07T09:28:47;99186.72;;;10.42;60.07
45621;BME280;31345;51.522;10.702;2023-04-07T09:31:21;99182.69;;;10.08;58.69
45621;BME280;31345;51.522;10.702;2023-04-07T09:33:57;99185.84;;;10.28;57.59
45621;BME280;31345;51.522;10.702;2023-04-07T09:36:25;99182.25;;;10.44;56.95
45621;BME280;31345;51.522;10.702;2023-04-07T09:39:02;99191.84;;;10.43;59.64
45621;BME280;31345;51.522;10.702;2023-04-07T09:41:34;99186.34;;;10.48;56.56
45621;BME280;31345;51.522;10.702;2023-04-07T09:44:06;99179.00;;;10.68;55.72
45621;BME280;31345;51.522;10.702;2023-04-07T09:46:47;99182.00;;;10.61;56.70
45621;BME280;31345;51.522;10.702;2023-04-07T09:49:20;99178.69;;;10.17;54.80
45621;BME280;31345;51.522;10.702;2023-04-07T09:51:52;99181.19;;;9.75;55.65
45621;BME280;31345;51.522;10.702;2023-04-07T09:54:31;99177.44;;;9.94;58.39
45621;BME280;31345;51.522;10.702;2023-04-07T09:57:04;99179.97;;;10.52;55.22
45621;BME280;31345;51.522;10.702;2023-04-07T09:59:38;99183.75;;;10.61;55.64
45621;BME280;31345;51.522;10.702;2023-04-07T10:02:06;99173.28;;;10.61;55.27
45621;BME280;31345;51.522;10.702;2023-04-07T10:04:35;99176.00;;;10.87;50.88
45621;BME280;31345;51.522;10.702;2023-04-07T10:07:09;99172.69;;;11.11;48.56
45621;BME280;31345;51.522;10.702;2023-04-07T10:09:41;99174.59;;;11.35;51.87
45621;BME280;31345;51.522;10.702;2023-04-07T10:12:14;99171.03;;;11.23;48.60
45621;BME280;31345;51.522;10.702;2023-04-07T10:14:42;99169.78;;;11.28;51.18
45621;BME280;31345;51.522;10.702;2023-04-07T10:17:17;99167.91;;;11.43;49.39
45621;BME280;31345;51.522;10.702;2023-04-07T10:19:52;99172.09;;;11.33;50.54
45621;BME280;31345;51.522;10.702;2023-04-07T10:22:19;99174.72;;;11.33;48.07
45621;BME280;31345;51.522;10.702;2023-04-07T10:24:50;99168.72;;;11.70;47.08
45621;BME280;31345;51.522;10.702;2023-04-07T10:27:20;99163.25;;;11.99;50.01
45621;BME280;31345;51.522;10.702;2023-04-07T10:29:49;99168.06;;;11.92;48.87
45621;BME280;31345;51.522;10.702;2023-04-07T10:32:17;99168.59;;;11.98;47.79
45621;BME280;31345;51.522;10.702;2023-04-07T10:34:55;99167.63;;;12.12;46.54
45621;BME280;31345;51.522;10.702;2023-04-07T10:37:28;99173.03;;;12.21;47.50
45621;BME280;31345;51.522;10.702;2023-04-07T10:42:47;99167.28;;;11.66;50.34
45621;BME280;31345;51.522;10.702;2023-04-07T10:48:10;99173.66;;;12.25;49.91
45621;BME280;31345;51.522;10.702;2023-04-07T10:50:45;99174.56;;;12.37;48.64
45621;BME280;31345;51.522;10.702;2023-04-07T10:53:14;99175.63;;;12.34;50.14
45621;BME280;31345;51.522;10.702;2023-04-07T10:55:47;99173.03;;;12.21;49.76
45621;BME280;31345;51.522;10.702;2023-04-07T10:58:21;99173.16;;;12.20;48.37
45621;BME280;31345;51.522;10.702;2023-04-07T11:03:58;99169.22;;;12.01;50.11
45621;BME280;31345;51.522;10.702;2023-04-07T11:06:27;99173.91;;;12.22;47.15
45621;BME280;31345;51.522;10.702;2023-04-07T11:09:00;99162.19;;;12.64;46.57
45621;BME280;31345;51.522;10.702;2023-04-07T11:11:36;99165.34;;;13.16;48.08
45621;BME280;31345;51.522;10.702;2023-04-07T11:14:09;99168.91;;;13.15;47.17
45621;BME280;31345;51.522;10.702;2023-04-07T11:16:42;99162.25;;;13.34;47.12
45621;BME280;31345;51.522;10.702;2023-04-07T11:19:16;99164.38;;;13.17;44.09
45621;BME280;31345;51.522;10.702;2023-04-07T11:24:44;99165.59;;;13.24;46.21
45621;BME280;31345;51.522;10.702;2023-04-07T11:27:12;99167.84;;;13.29;45.34
45621;BME280;31345;51.522;10.702;2023-04-07T11:29:40;99163.19;;;12.74;45.68
45621;BME280;31345;51.522;10.702;2023-04-07T11:32:08;99160.13;;;12.92;45.67
45621;BME280;31345;51.522;10.702;2023-04-07T11:34:35;99171.81;;;12.88;45.66
45621;BME280;31345;51.522;10.702;2023-04-07T11:37:17;99170.88;;;13.36;46.07
45621;BME280;31345;51.522;10.702;2023-04-07T11:39:51;99165.81;;;13.21;48.30
45621;BME280;31345;51.522;10.702;2023-04-07T11:42:30;99158.91;;;13.43;46.61
45621;BME280;31345;51.522;10.702;2023-04-07T11:44:57;99157.25;;;13.42;45.80
45621;BME280;31345;51.522;10.702;2023-04-07T11:47:33;99159.38;;;13.26;45.10
45621;BME280;31345;51.522;10.702;2023-04-07T11:50:01;99158.44;;;13.38;45.56
45621;BME280;31345;51.522;10.702;2023-04-07T11:52:39;99152.50;;;13.36;46.45
45621;BME280;31345;51.522;10.702;2023-04-07T11:55:08;99152.00;;;13.42;43.62
45621;BME280;31345;51.522;10.702;2023-04-07T11:57:48;99154.34;;;13.11;43.97
45621;BME280;31345;51.522;10.702;2023-04-07T12:00:16;99161.53;;;13.20;43.34
45621;BME280;31345;51.522;10.702;2023-04-07T12:02:49;99153.47;;;12.99;43.35
45621;BME280;31345;51.522;10.702;2023-04-07T12:05:21;99155.41;;;13.08;47.59
45621;BME280;31345;51.522;10.702;2023-04-07T12:07:53;99155.06;;;13.13;46.59
45621;BME280;31345;51.522;10.702;2023-04-07T12:10:27;99153.59;;;13.68;45.38
45621;BME280;31345;51.522;10.702;2023-04-07T12:13:00;99153.19;;;13.38;44.16
45621;BME280;31345;51.522;10.702;2023-04-07T12:15:33;99159.94;;;13.88;43.93
45621;BME280;31345;51.522;10.702;2023-04-07T12:18:02;99152.97;;;13.87;41.18
45621;BME280;31345;51.522;10.702;2023-04-07T12:20:34;99148.47;;;13.89;40.96
45621;BME280;31345;51.522;10.702;2023-04-07T12:23:06;99161.47;;;13.91;42.14
45621;BME280;31345;51.522;10.702;2023-04-07T12:25:35;99148.34;;;13.68;42.90
45621;BME280;31345;51.522;10.702;2023-04-07T12:28:02;99149.53;;;13.75;40.30
45621;BME280;31345;51.522;10.702;2023-04-07T12:30:35;99149.19;;;13.80;41.27
45621;BME280;31345;51.522;10.702;2023-04-07T12:33:07;99156.69;;;13.84;41.45
45621;BME280;31345;51.522;10.702;2023-04-07T12:35:40;99153.78;;;14.22;44.83
45621;BME280;31345;51.522;10.702;2023-04-07T12:38:12;99152.75;;;14.01;41.47
45621;BME280;31345;51.522;10.702;2023-04-07T12:40:42;99146.75;;;13.99;40.36
45621;BME280;31345;51.522;10.702;2023-04-07T12:43:14;99152.44;;;14.27;42.25
45621;BME280;31345;51.522;10.702;2023-04-07T12:45:41;99153.81;;;14.43;43.87
45621;BME280;31345;51.522;10.702;2023-04-07T12:48:09;99149.88;;;14.49;43.38
45621;BME280;31345;51.522;10.702;2023-04-07T12:50:41;99144.97;;;14.56;42.74
45621;BME280;31345;51.522;10.702;2023-04-07T12:53:08;99144.31;;;14.63;42.28
45621;BME280;31345;51.522;10.702;2023-04-07T12:55:36;99142.53;;;14.20;42.17
45621;BME280;31345;51.522;10.702;2023-04-07T12:58:10;99151.06;;;14.45;42.39
45621;BME280;31345;51.522;10.702;2023-04-07T13:00:38;99147.16;;;14.39;43.04
45621;BME280;31345;51.522;10.702;2023-04-07T13:03:11;99143.84;;;14.25;40.11
45621;BME280;31345;51.522;10.702;2023-04-07T13:05:44;99149.00;;;14.27;41.48
45621;BME280;31345;51.522;10.702;2023-04-07T13:08:16;99153.31;;;14.17;40.56
45621;BME280;31345;51.522;10.702;2023-04-07T13:10:48;99150.56;;;14.62;42.53
45621;BME280;31345;51.522;10.702;2023-04-07T13:13:22;99146.94;;;14.31;42.91
45621;BME280;31345;51.522;10.702;2023-04-07T13:15:50;99145.66;;;14.58;41.67
45621;BME280;31345;51.522;10.702;2023-04-07T13:18:23;99154.78;;;15.08;44.33
45621;BME280;31345;51.522;10.702;2023-04-07T13:20:50;99148.88;;;14.83;43.94
45621;BME280;31345;51.522;10.702;2023-04-07T13:23:22;99151.50;;;15.37;41.44
45621;BME280;31345;51.522;10.702;2023-04-07T13:25:50;99143.25;;;14.87;42.88
45621;BME280;31345;51.522;10.702;2023-04-07T13:28:24;99149.63;;;15.27;42.55
45621;BME280;31345;51.522;10.702;2023-04-07T13:30:51;99146.25;;;15.15;40.24
45621;BME280;31345;51.522;10.702;2023-04-07T13:33:23;99137.78;;;14.79;41.66
45621;BME280;31345;51.522;10.702;2023-04-07T13:35:51;99145.25;;;15.16;43.25
45621;BME280;31345;51.522;10.702;2023-04-07T13:38:23;99137.63;;;14.92;41.49
45621;BME280;31345;51.522;10.702;2023-04-07T13:40:51;99131.88;;;14.87;39.23
45621;BME280;31345;51.522;10.702;2023-04-07T13:43:18;99133.16;;;14.71;41.41
45621;BME280;31345;51.522;10.702;2023-04-07T13:45:52;99143.41;;;15.07;42.72